Time;durP1;ratioP1;P1;durP2;ratioP2;P2;SDS_P1;SDS_P2;PMS_P1;PMS_P2;Temp;Humidity;BMP_temperature;BMP_pressure;BME280_temperature;BME280_humidity;BME280_pressure;Samples;Min_cycle;Max_cycle;Signal;HPM_P1;HPM_P2
2023/01/07 00:00:11;;;;;;;;;19.80;18.20;;;;;13.92;44.78;100119.09;5048006;28;8848;-79
2023/01/07 00:03:00;;;;;;;;;20.40;19.00;;;;;13.95;44.73;100124.31;5053453;28;8868;-78
2023/01/07 00:05:29;;;;;;;;;19.20;17.60;;;;;13.86;44.98;100117.38;5067342;28;8844;-79
2023/01/07 00:07:58;;;;;;;;;20.60;18.00;;;;;13.83;44.97;100120.84;5050988;28;8985;-79
2023/01/07 00:10:28;;;;;;;;;16.40;16.40;;;;;13.80;45.46;100117.41;5067708;28;8858;-79
2023/01/07 00:12:57;;;;;;;;;20.20;19.20;;;;;13.82;45.25;100113.88;5067796;28;8929;-78
2023/01/07 00:15:26;;;;;;;;;18.80;17.60;;;;;13.74;45.16;100115.69;5068045;28;8879;-77
2023/01/07 00:17:54;;;;;;;;;19.00;18.20;;;;;13.90;44.87;100113.84;5027091;28;8866;-78
2023/01/07 00:20:23;;;;;;;;;20.20;17.40;;;;;13.90;44.87;100108.59;5011209;28;8876;-79
2023/01/07 00:22:52;;;;;;;;;17.80;16.00;;;;;13.95;44.39;100108.56;5031342;28;8865;-79
2023/01/07 00:25:21;;;;;;;;;15.20;15.20;;;;;13.94;44.43;100105.09;5053927;28;8839;-79
2023/01/07 00:27:51;;;;;;;;;19.80;19.00;;;;;13.96;44.54;100105.09;5056594;28;8843;-78
2023/01/07 00:30:20;;;;;;;;;15.20;15.00;;;;;14.00;44.22;100112.91;5090518;28;8856;-77
2023/01/07 00:33:03;;;;;;;;;21.00;19.80;;;;;14.00;44.07;100112.91;5073730;28;8849;-78
2023/01/07 00:35:35;;;;;;;;;22.40;18.40;;;;;14.12;44.02;100113.72;5091303;28;8861;-78
2023/01/07 00:38:04;;;;;;;;;21.40;21.00;;;;;14.16;43.88;100112.84;5093701;28;8837;-78
2023/01/07 00:40:33;;;;;;;;;22.20;21.60;;;;;14.24;43.96;100105.78;5090335;28;8848;-77
2023/01/07 00:43:05;;;;;;;;;15.80;15.80;;;;;14.30;43.79;100104.88;5107074;28;8886;-78
2023/01/07 00:45:36;;;;;;;;;29.20;27.00;;;;;14.28;43.83;100112.75;5072986;28;8983;-78
2023/01/07 00:48:06;;;;;;;;;22.20;21.00;;;;;14.27;43.52;100104.88;5076604;27;8869;-78
2023/01/07 00:50:37;;;;;;;;;25.60;24.20;;;;;14.27;43.66;100092.63;5097736;27;8843;-77
2023/01/07 00:53:06;;;;;;;;;23.80;22.40;;;;;14.17;43.72;100106.69;5114953;27;8897;-78
2023/01/07 00:55:35;;;;;;;;;29.60;26.20;;;;;14.03;44.02;100102.41;5115457;27;8840;-78
2023/01/07 00:58:06;;;;;;;;;37.50;35.50;;;;;14.08;43.93;100101.50;5063975;27;8835;-79
2023/01/07 01:00:35;;;;;;;;;37.75;34.00;;;;;13.90;44.40;100103.34;5080962;27;8839;-79
2023/01/07 01:03:04;;;;;;;;;21.80;20.60;;;;;13.79;44.65;100103.41;5142956;27;8830;-78
2023/01/07 01:05:33;;;;;;;;;28.00;26.20;;;;;13.92;44.17;100105.97;5111610;27;8829;-78
2023/01/07 01:08:02;;;;;;;;;39.75;34.00;;;;;13.84;44.45;100104.25;5111673;27;8867;-78
2023/01/07 01:10:31;;;;;;;;;41.00;36.50;;;;;13.83;44.35;100102.50;5094460;27;9690;-79
2023/01/07 01:13:00;;;;;;;;;31.50;30.25;;;;;13.93;44.19;100095.50;5129868;27;8881;-77
2023/01/07 01:15:31;;;;;;;;;41.25;36.00;;;;;13.75;44.59;100087.72;5094634;27;8841;-79
2023/01/07 01:17:59;;;;;;;;;22.60;20.80;;;;;13.83;44.09;100099.03;5110973;27;8844;-78
2023/01/07 01:20:28;;;;;;;;;28.20;26.80;;;;;13.65;44.59;100090.38;5056034;27;8837;-80
2023/01/07 01:22:57;;;;;;;;;31.00;28.00;;;;;13.73;44.49;100092.09;5110822;27;8882;-80
2023/01/07 01:25:26;;;;;;;;;32.00;29.60;;;;;13.72;44.52;100090.34;5114673;27;8853;-80
2023/01/07 01:27:54;;;;;;;;;30.00;23.40;;;;;13.79;43.93;100094.69;5112055;27;8853;-80
2023/01/07 01:30:23;;;;;;;;;23.40;23.40;;;;;13.88;43.91;100096.41;5091811;28;8867;-80
2023/01/07 01:32:54;;;;;;;;;30.80;29.20;;;;;13.90;44.17;100098.13;5090562;28;8861;-77
2023/01/07 01:35:22;;;;;;;;;30.40;27.80;;;;;13.98;43.77;100091.06;5107276;28;8845;-77
2023/01/07 01:37:51;;;;;;;;;28.40;27.00;;;;;14.05;43.51;100084.06;5073015;28;8864;-77
2023/01/07 01:40:20;;;;;;;;;42.50;31.50;;;;;14.09;43.36;100088.41;5108539;28;8860;-78
2023/01/07 01:42:49;;;;;;;;;34.00;32.40;;;;;14.09;43.36;100084.91;5107356;28;8860;-79
2023/01/07 01:45:20;;;;;;;;;38.25;37.00;;;;;14.13;43.06;100086.63;5107431;28;8844;-78
2023/01/07 01:47:54;;;;;;;;;28.00;26.40;;;;;14.17;43.12;100083.09;5124692;28;8833;-78
2023/01/07 01:50:31;;;;;;;;;44.25;37.75;;;;;14.16;43.02;100078.75;5107554;28;8913;-78
2023/01/07 01:53:07;;;;;;;;;21.80;19.80;;;;;14.08;43.51;100075.28;5126179;27;9596;-79
2023/01/07 01:55:43;;;;;;;;;25.80;24.00;;;;;14.07;43.18;100068.31;5111609;28;8864;-78
2023/01/07 01:58:18;;;;;;;;;27.00;24.20;;;;;14.08;43.14;100068.28;5111574;28;8872;-78
2023/01/07 02:00:48;;;;;;;;;24.20;22.60;;;;;14.00;43.24;100065.72;5095045;28;8856;-78
2023/01/07 02:03:21;;;;;;;;;25.20;22.60;;;;;14.03;43.33;100064.84;5132443;27;8850;-80
2023/01/07 02:05:52;;;;;;;;;28.40;26.40;;;;;14.03;43.34;100068.31;5115160;27;8850;-79
2023/01/07 02:08:22;;;;;;;;;25.40;24.80;;;;;14.02;43.20;100058.69;5115146;27;8847;-79
2023/01/07 02:11:11;;;;;;;;;22.40;21.20;;;;;13.93;43.49;100055.28;5132037;27;8831;-80
2023/01/07 02:13:57;;;;;;;;;21.00;19.80;;;;;13.79;43.37;100056.22;5133391;27;9708;-77
2023/01/07 02:16:36;;;;;;;;;25.00;18.00;;;;;13.76;43.56;100050.13;5117744;27;8842;-78
2023/01/07 02:19:27;;;;;;;;;16.40;16.40;;;;;13.52;43.98;100052.00;5134286;27;8858;-79
2023/01/07 02:22:06;;;;;;;;;23.60;21.20;;;;;13.29;44.43;100049.44;5119416;27;8866;-79
2023/01/07 02:25:25;;;;;;;;;19.20;17.00;;;;;13.33;44.70;100045.09;5118605;27;8915;-78
2023/01/07 02:28:20;;;;;;;;;15.80;14.00;;;;;13.20;44.96;100042.47;5012443;28;8844;-80
2023/01/07 02:31:16;;;;;;;;;19.40;19.00;;;;;13.14;44.65;100034.66;5028858;28;8906;-78
2023/01/07 02:33:56;;;;;;;;;24.60;20.80;;;;;13.15;45.18;100038.13;5028807;28;8949;-78
2023/01/07 02:36:35;;;;;;;;;19.80;16.40;;;;;13.23;44.89;100037.25;4996985;28;8956;-76
2023/01/07 02:39:18;;;;;;;;;18.60;17.80;;;;;13.25;44.85;100030.25;4996599;28;8859;-80
2023/01/07 02:41:55;;;;;;;;;19.00;18.00;;;;;13.07;44.79;100027.69;5009208;28;8843;-75
2023/01/07 02:44:35;;;;;;;;;9.60;9.60;;;;;13.15;45.11;100035.50;4976815;28;8860;-80
2023/01/07 02:47:11;;;;;;;;;18.60;18.40;;;;;12.98;45.16;100028.56;4976723;28;8872;-78
2023/01/07 02:49:42;;;;;;;;;15.00;14.20;;;;;13.08;44.99;100029.44;5011693;28;9583;-77
2023/01/07 02:52:18;;;;;;;;;20.60;19.60;;;;;13.17;45.38;100036.38;4996240;28;8960;-78
2023/01/07 02:54:54;;;;;;;;;20.80;19.40;;;;;13.12;44.69;100036.41;4995978;28;8873;-79
2023/01/07 02:57:53;;;;;;;;;23.60;22.20;;;;;13.11;44.57;100037.25;4995508;28;8865;-79
2023/01/07 03:00:38;;;;;;;;;24.60;20.40;;;;;13.02;45.08;100032.06;5011910;28;8865;-78
2023/01/07 03:03:33;;;;;;;;;20.80;18.80;;;;;13.02;45.21;100035.56;5004951;28;8849;-78
2023/01/07 03:06:25;;;;;;;;;22.00;19.60;;;;;13.15;44.99;100044.22;5007986;28;9593;-77
2023/01/07 03:09:04;;;;;;;;;18.20;17.80;;;;;13.26;44.71;100034.59;4994571;28;8904;-78
2023/01/07 03:11:42;;;;;;;;;18.80;15.20;;;;;13.19;44.48;100038.09;5011787;28;8858;-79
2023/01/07 03:14:18;;;;;;;;;13.00;11.80;;;;;13.18;44.97;100032.91;5072508;28;8998;-77
2023/01/07 03:16:55;;;;;;;;;10.60;9.60;;;;;13.13;44.60;100030.28;5055966;28;8876;-78
2023/01/07 03:19:28;;;;;;;;;15.00;14.20;;;;;13.15;44.58;100032.91;5055104;28;8967;-77
2023/01/07 03:22:02;;;;;;;;;18.00;15.40;;;;;13.15;44.59;100033.75;5088734;28;8849;-78
2023/01/07 03:24:32;;;;;;;;;14.40;12.40;;;;;13.24;44.28;100031.09;5088564;28;9023;-77
2023/01/07 03:27:05;;;;;;;;;15.40;13.60;;;;;13.23;44.22;100025.88;5088748;28;8987;-78
2023/01/07 03:29:34;;;;;;;;;17.40;16.00;;;;;13.26;44.13;100028.50;5088079;28;8845;-78
2023/01/07 03:32:13;;;;;;;;;16.60;14.60;;;;;13.24;44.62;100031.09;5054540;28;9682;-79
2023/01/07 03:34:43;;;;;;;;;11.00;9.40;;;;;13.25;44.41;100024.13;5045112;28;8957;-79
2023/01/07 03:37:17;;;;;;;;;10.80;9.00;;;;;13.05;44.16;100022.44;5092638;28;8837;-79
2023/01/07 03:39:48;;;;;;;;;9.40;9.40;;;;;12.95;45.20;100025.09;5092786;28;8844;-77
2023/01/07 03:42:40;;;;;;;;;11.00;11.00;;;;;12.87;44.89;100026.00;5109871;28;8879;-79
2023/01/07 03:45:16;;;;;;;;;14.80;13.00;;;;;12.94;44.79;100020.75;5127033;27;8845;-79
2023/01/07 03:47:48;;;;;;;;;15.40;12.00;;;;;12.95;44.90;100023.34;5092215;28;8837;-78
2023/01/07 03:50:19;;;;;;;;;10.00;8.60;;;;;12.94;45.24;100026.84;5093139;28;8861;-77
2023/01/07 03:52:50;;;;;;;;;9.00;8.00;;;;;12.90;44.97;100021.63;5110084;28;8857;-78
2023/01/07 03:55:21;;;;;;;;;9.00;7.80;;;;;12.95;44.90;100017.22;5092341;28;8864;-77
2023/01/07 03:57:52;;;;;;;;;12.60;8.60;;;;;12.92;44.87;100017.25;5109126;28;8829;-78
2023/01/07 04:00:20;;;;;;;;;9.20;8.00;;;;;12.86;44.63;100021.63;5091812;28;8882;-78
2023/01/07 04:02:59;;;;;;;;;10.00;9.80;;;;;13.15;43.83;100017.19;5108882;28;9587;-80
2023/01/07 04:05:36;;;;;;;;;12.00;10.00;;;;;13.07;44.43;100014.59;5092338;28;8861;-77
2023/01/07 04:08:07;;;;;;;;;9.60;7.40;;;;;13.11;44.06;100012.84;5074617;28;8945;-78
2023/01/07 04:10:38;;;;;;;;;8.00;8.00;;;;;13.06;44.35;100021.59;5092531;28;8853;-77
2023/01/07 04:13:07;;;;;;;;;8.00;7.40;;;;;13.19;44.38;100013.66;5109876;28;8934;-77
2023/01/07 04:15:37;;;;;;;;;6.20;6.20;;;;;13.14;44.32;100021.56;5091913;28;8861;-77
2023/01/07 04:18:06;;;;;;;;;9.40;8.00;;;;;13.14;44.04;100013.69;5092436;28;8961;-77
2023/01/07 04:20:34;;;;;;;;;12.00;9.40;;;;;13.14;44.21;100016.31;5109581;28;8853;-78
2023/01/07 04:23:03;;;;;;;;;8.40;8.40;;;;;13.14;44.22;100011.09;5109233;28;8829;-77
2023/01/07 04:25:34;;;;;;;;;5.80;5.80;;;;;13.17;44.09;100012.81;5110231;28;9598;-76
2023/01/07 04:28:06;;;;;;;;;8.60;8.60;;;;;13.17;44.36;100004.94;5109153;28;8872;-78
2023/01/07 04:30:36;;;;;;;;;6.80;6.80;;;;;13.17;44.24;100002.34;5091725;28;8845;-78
2023/01/07 04:33:06;;;;;;;;;6.40;6.40;;;;;13.18;43.40;100010.19;5088387;28;8848;-78
2023/01/07 04:35:34;;;;;;;;;7.00;6.20;;;;;13.18;44.06;100009.31;5053734;28;8961;-78
2023/01/07 04:38:04;;;;;;;;;7.60;7.60;;;;;13.25;43.48;100008.41;5088113;28;8828;-78
2023/01/07 04:40:34;;;;;;;;;7.20;7.20;;;;;13.29;43.55;100004.91;5053493;28;8945;-78
2023/01/07 04:43:04;;;;;;;;;5.60;5.60;;;;;13.40;43.32;100004.88;5086912;28;8945;-79
2023/01/07 04:45:33;;;;;;;;;5.80;5.80;;;;;13.44;43.06;100002.25;5070082;28;8860;-78
2023/01/07 04:48:02;;;;;;;;;9.60;8.40;;;;;13.31;43.17;100005.81;5070106;28;8880;-79
2023/01/07 04:50:31;;;;;;;;;7.00;7.00;;;;;13.41;43.23;100002.25;5077336;28;8849;-79
2023/01/07 04:53:00;;;;;;;;;11.60;11.60;;;;;13.25;43.19;99998.81;5041291;28;8938;-79
2023/01/07 04:55:29;;;;;;;;;10.00;8.60;;;;;13.35;42.92;100004.91;5107350;28;8944;-79
2023/01/07 04:58:00;;;;;;;;;8.20;8.20;;;;;13.21;43.20;100004.06;5107046;28;8842;-79
2023/01/07 05:00:29;;;;;;;;;9.20;8.40;;;;;13.25;43.15;99992.69;5074107;28;8878;-80
2023/01/07 05:02:58;;;;;;;;;9.80;9.80;;;;;13.40;42.61;99997.91;5107194;28;8857;-78
2023/01/07 05:05:27;;;;;;;;;10.80;10.20;;;;;13.46;42.13;99997.00;5090473;28;8866;-78
2023/01/07 05:07:56;;;;;;;;;13.00;9.00;;;;;13.57;42.08;100000.44;5107858;28;8866;-78
2023/01/07 05:10:29;;;;;;;;;10.00;9.20;;;;;13.52;41.79;99996.13;5107714;28;8870;-81
2023/01/07 05:13:04;;;;;;;;;10.20;10.20;;;;;13.40;42.54;99997.03;5109605;28;8845;-79
2023/01/07 05:15:35;;;;;;;;;10.60;10.40;;;;;13.29;42.73;99993.53;5091431;28;8902;-79
2023/01/07 05:18:06;;;;;;;;;13.20;11.20;;;;;13.32;42.87;99998.81;5092042;28;9562;-78
2023/01/07 05:20:35;;;;;;;;;13.40;11.60;;;;;13.53;42.41;100000.47;5109280;28;8914;-79
2023/01/07 05:23:05;;;;;;;;;13.40;10.20;;;;;13.52;42.27;99996.97;5091008;28;8853;-78
2023/01/07 05:25:35;;;;;;;;;12.60;10.60;;;;;13.52;42.54;99994.34;5107753;28;8858;-79
2023/01/07 05:28:05;;;;;;;;;12.80;12.80;;;;;13.51;42.00;99997.84;5107827;28;8853;-79
2023/01/07 05:30:38;;;;;;;;;11.20;10.80;;;;;13.51;42.75;100003.06;5092066;28;8886;-78
2023/01/07 05:33:08;;;;;;;;;10.20;10.20;;;;;13.46;42.69;100004.88;5088603;28;8844;-79
2023/01/07 05:35:37;;;;;;;;;9.00;9.00;;;;;13.53;42.43;99997.84;5088233;28;8851;-79
2023/01/07 05:38:07;;;;;;;;;11.20;11.20;;;;;13.57;42.83;99994.31;5021493;28;8848;-77
2023/01/07 05:40:35;;;;;;;;;11.20;10.80;;;;;13.52;42.63;100004.84;5070571;28;8839;-79
2023/01/07 05:43:06;;;;;;;;;14.40;13.20;;;;;13.60;42.60;99999.56;5071085;28;8840;-79
2023/01/07 05:45:35;;;;;;;;;12.20;10.40;;;;;13.68;42.40;99996.88;5049373;28;8843;-79
2023/01/07 05:48:04;;;;;;;;;12.20;12.20;;;;;13.66;42.50;100004.75;5032648;28;8854;-78
2023/01/07 05:50:33;;;;;;;;;7.40;7.00;;;;;13.68;43.00;99999.50;5049056;28;8858;-79
2023/01/07 05:53:02;;;;;;;;;12.40;10.00;;;;;13.77;42.91;99997.69;5032043;28;8885;-78
2023/01/07 05:55:31;;;;;;;;;14.60;12.20;;;;;13.68;42.68;99997.75;5069072;28;8890;-77
2023/01/07 05:57:59;;;;;;;;;12.60;8.80;;;;;13.69;42.92;99999.50;5069984;28;8859;-76
2023/01/07 06:00:29;;;;;;;;;10.20;9.00;;;;;13.78;42.64;99996.81;5069111;28;8840;-79
2023/01/07 06:02:58;;;;;;;;;7.80;7.80;;;;;13.72;43.07;99998.59;5051962;28;8928;-77
2023/01/07 06:05:27;;;;;;;;;9.60;7.60;;;;;13.75;42.69;100001.22;5052165;28;8879;-78
2023/01/07 06:07:56;;;;;;;;;8.20;8.20;;;;;13.78;42.58;99998.56;5068336;28;8863;-78
2023/01/07 06:10:24;;;;;;;;;9.80;8.40;;;;;13.91;42.35;100000.22;5052218;28;8874;-76
2023/01/07 06:12:54;;;;;;;;;8.00;6.60;;;;;13.87;42.62;100000.25;5048291;28;8866;-78
2023/01/07 06:15:22;;;;;;;;;7.00;6.80;;;;;13.92;42.69;100001.09;5048886;28;8870;-78
2023/01/07 06:17:53;;;;;;;;;12.20;11.40;;;;;13.95;42.29;100007.19;5026132;28;8853;-78
2023/01/07 06:20:22;;;;;;;;;9.60;9.60;;;;;13.99;42.68;100001.06;5012643;28;8923;-78
2023/01/07 06:22:51;;;;;;;;;8.60;8.20;;;;;14.14;42.17;100004.41;5029458;28;8881;-78
2023/01/07 06:25:20;;;;;;;;;14.00;14.00;;;;;14.36;41.65;99994.63;5029296;28;8870;-80
2023/01/07 06:27:49;;;;;;;;;10.00;10.00;;;;;14.59;41.44;99997.06;5028698;28;8916;-78
2023/01/07 06:30:18;;;;;;;;;13.20;12.00;;;;;14.75;41.09;100006.53;5059221;28;8832;-79
2023/01/07 06:32:46;;;;;;;;;16.20;16.00;;;;;14.86;40.54;100006.44;5047809;28;8880;-81
2023/01/07 06:35:16;;;;;;;;;13.80;13.40;;;;;15.00;40.67;100001.88;5045196;28;9084;-79
2023/01/07 06:37:45;;;;;;;;;15.40;14.40;;;;;15.11;40.41;99999.16;4995393;28;8862;-79
2023/01/07 06:40:14;;;;;;;;;15.60;14.40;;;;;15.18;40.15;99998.19;5032152;28;8989;-77
2023/01/07 06:42:44;;;;;;;;;48.50;40.00;;;;;15.25;40.08;100001.59;5015651;28;8937;-79
2023/01/07 06:45:12;;;;;;;;;24.75;23.25;;;;;15.35;39.40;100003.25;5032619;28;8842;-78
2023/01/07 06:47:41;;;;;;;;;14.80;14.40;;;;;15.37;39.22;100001.47;5028574;28;8854;-79
2023/01/07 06:50:10;;;;;;;;;16.00;15.00;;;;;15.43;38.92;100002.28;5071653;28;8863;-79
2023/01/07 06:52:40;;;;;;;;;16.00;15.20;;;;;15.50;39.14;100004.81;5090814;28;8867;-78
2023/01/07 06:55:10;;;;;;;;;15.00;13.80;;;;;15.52;38.77;100000.41;5091390;28;8966;-77
2023/01/07 06:57:39;;;;;;;;;17.60;15.60;;;;;15.60;38.56;100008.16;5107087;28;8871;-79
2023/01/07 07:00:09;;;;;;;;;42.00;36.75;;;;;15.72;38.75;100004.50;5072265;28;9022;-79
2023/01/07 07:02:38;;;;;;;;;15.60;14.80;;;;;15.75;38.53;100005.34;5090512;28;8882;-77
2023/01/07 07:05:07;;;;;;;;;14.60;13.80;;;;;15.69;38.16;100004.53;5098745;28;8844;-79
2023/01/07 07:07:36;;;;;;;;;17.00;15.20;;;;;15.75;38.07;100002.72;5106796;28;8926;-78
2023/01/07 07:10:08;;;;;;;;;22.40;19.60;;;;;15.77;37.71;100010.59;5073144;28;8874;-76
2023/01/07 07:12:37;;;;;;;;;16.80;16.60;;;;;15.80;37.98;100010.53;5073209;28;8847;-78
2023/01/07 07:15:08;;;;;;;;;19.20;18.00;;;;;15.93;37.88;100014.72;5089814;28;8843;-76
2023/01/07 07:17:37;;;;;;;;;23.00;21.40;;;;;15.88;37.89;100016.56;5106474;28;8880;-80
2023/01/07 07:20:06;;;;;;;;;24.80;22.60;;;;;15.99;37.70;100016.38;5102066;28;8837;-79
2023/01/07 07:22:35;;;;;;;;;31.40;24.40;;;;;16.03;37.56;100015.47;5126801;27;8858;-78
2023/01/07 07:25:06;;;;;;;;;25.20;22.40;;;;;16.14;37.51;100017.91;5111123;28;8841;-77
2023/01/07 07:27:35;;;;;;;;;29.60;27.80;;;;;16.06;37.39;100018.03;5110029;28;9578;-81
2023/01/07 07:30:05;;;;;;;;;26.00;25.20;;;;;16.21;37.51;100022.19;5125628;27;8866;-79
2023/01/07 07:32:34;;;;;;;;;29.00;25.80;;;;;16.25;37.21;100012.50;5130501;27;9684;-78
2023/01/07 07:35:02;;;;;;;;;33.60;27.00;;;;;16.30;37.40;100018.56;5147575;27;8830;-79
2023/01/07 07:37:31;;;;;;;;;21.60;21.00;;;;;16.36;37.06;100013.19;5129884;27;9615;-79
2023/01/07 07:40:00;;;;;;;;;25.60;23.80;;;;;16.43;37.12;100014.84;5109655;28;8849;-80
2023/01/07 07:42:30;;;;;;;;;30.60;28.00;;;;;16.50;37.26;100020.84;5109770;28;8829;-79
2023/01/07 07:45:19;;;;;;;;;34.25;28.25;;;;;16.49;37.27;100016.50;5087355;28;9003;-79
2023/01/07 07:47:48;;;;;;;;;31.40;29.40;;;;;16.53;36.74;100012.91;5073656;28;8954;-80
2023/01/07 07:50:17;;;;;;;;;36.50;34.75;;;;;16.47;36.88;100015.66;5072443;28;8967;-78
2023/01/07 07:52:46;;;;;;;;;22.40;19.80;;;;;16.60;36.86;100005.75;5091711;28;8924;-78
2023/01/07 07:55:15;;;;;;;;;38.25;36.00;;;;;16.60;37.09;100005.75;5091384;28;8852;-78
2023/01/07 07:57:52;;;;;;;;;28.60;27.60;;;;;16.76;36.60;100002.81;5090685;28;8871;-81
2023/01/07 08:00:21;;;;;;;;;35.80;34.00;;;;;16.73;36.91;100007.28;5070271;28;8857;-78
2023/01/07 08:02:50;;;;;;;;;27.50;23.75;;;;;16.89;36.50;100005.25;5087826;28;8849;-78
2023/01/07 08:05:19;;;;;;;;;30.00;29.60;;;;;16.97;36.27;100008.59;5070983;28;8877;-81
2023/01/07 08:07:48;;;;;;;;;33.50;31.25;;;;;17.05;36.29;100001.44;5071448;28;8887;-80
2023/01/07 08:10:17;;;;;;;;;31.40;26.40;;;;;17.11;36.17;100003.09;5087824;28;8961;-79
2023/01/07 08:12:47;;;;;;;;;81.50;65.50;;;;;17.15;36.70;100002.97;5087570;28;8934;-78
2023/01/07 08:15:17;;;;;;;;;46.75;39.25;;;;;17.33;36.38;100003.50;5087984;28;9585;-78
2023/01/07 08:17:46;;;;;;;;;42.50;38.00;;;;;17.46;36.34;100006.75;5053652;28;8846;-79
2023/01/07 08:20:15;;;;;;;;;34.00;30.00;;;;;17.56;36.31;100003.03;5070589;28;8866;-79
2023/01/07 08:22:44;;;;;;;;;30.80;28.60;;;;;17.71;35.92;100001.78;5070299;28;8847;-79
2023/01/07 08:25:13;;;;;;;;;73.00;59.00;;;;;17.75;35.50;100000.84;5069831;28;8859;-79
2023/01/07 08:27:41;;;;;;;;;54.25;42.25;;;;;17.47;35.67;100000.59;5029845;28;9004;-80
2023/01/07 08:30:11;;;;;;;;;32.50;30.25;;;;;17.59;35.67;100000.31;5047912;28;8907;-78
2023/01/07 08:32:42;;;;;;;;;33.60;31.60;;;;;17.58;35.55;100006.50;5031768;28;8830;-79
2023/01/07 08:35:10;;;;;;;;;32.25;29.25;;;;;17.70;35.66;100011.47;5013745;28;8854;-78
2023/01/07 08:37:40;;;;;;;;;32.80;31.20;;;;;17.92;35.71;100011.91;5035509;28;8870;-78
2023/01/07 08:40:10;;;;;;;;;26.60;25.20;;;;;18.09;35.98;100005.34;5067046;28;8852;-80
2023/01/07 08:42:39;;;;;;;;;31.75;30.25;;;;;18.26;35.70;99999.66;5069153;28;8891;-77
2023/01/07 08:45:10;;;;;;;;;51.75;41.50;;;;;18.31;35.23;100009.19;5087264;28;8969;-78
2023/01/07 08:47:39;;;;;;;;;40.00;36.00;;;;;18.31;35.38;100006.56;5069346;28;9603;-78
2023/01/07 08:50:09;;;;;;;;;42.50;37.00;;;;;18.41;35.02;99993.13;5069365;28;8863;-79
2023/01/07 08:52:39;;;;;;;;;48.75;41.50;;;;;18.18;35.02;100004.25;5069304;28;9033;-81
2023/01/07 08:55:09;;;;;;;;;42.75;37.00;;;;;16.95;36.77;100007.78;5086885;28;9098;-81
2023/01/07 08:57:37;;;;;;;;;46.75;39.00;;;;;17.12;36.86;100013.56;5069708;28;9036;-80
2023/01/07 09:00:08;;;;;;;;;50.00;41.00;;;;;16.86;37.27;100011.47;5104270;28;8887;-78
2023/01/07 09:02:37;;;;;;;;;48.50;40.00;;;;;16.82;37.13;100011.50;5104427;28;8856;-81
2023/01/07 09:05:07;;;;;;;;;43.50;37.50;;;;;16.74;37.41;100009.88;5089311;28;8855;-78
2023/01/07 09:07:38;;;;;;;;;63.25;50.50;;;;;17.18;36.84;99999.41;5070162;28;8867;-79
2023/01/07 09:10:08;;;;;;;;;37.25;35.25;;;;;17.34;36.32;100002.63;5087107;28;8831;-80
2023/01/07 09:12:37;;;;;;;;;33.75;33.00;;;;;17.58;35.94;100001.22;5104889;28;8840;-79
2023/01/07 09:15:07;;;;;;;;;70.33;56.33;;;;;17.78;37.08;100000.75;5087590;28;8867;-78
2023/01/07 09:17:36;;;;;;;;;72.67;57.00;;;;;17.97;37.30;99997.72;5070406;28;9034;-78
2023/01/07 09:20:06;;;;;;;;;84.75;71.50;;;;;18.10;37.08;99999.19;5104166;28;9250;-80
2023/01/07 09:22:38;;;;;;;;;72.00;53.25;;;;;18.21;37.31;99996.28;5115024;27;10002;-82
2023/01/07 09:25:07;;;;;;;;;97.50;90.75;;;;;18.26;36.85;99994.38;5090249;28;11307;-77
2023/01/07 09:27:36;;;;;;;;;99.25;93.50;;;;;18.34;36.60;99988.94;5107313;28;11646;-78
2023/01/07 09:30:08;;;;;;;;;84.50;75.25;;;;;18.29;36.62;99984.59;5121278;27;11445;-79
2023/01/07 09:32:37;;;;;;;;;89.00;79.00;;;;;18.25;36.52;99980.31;5092524;27;10942;-79
2023/01/07 09:35:07;;;;;;;;;86.50;79.75;;;;;18.27;36.27;99981.13;5092985;27;11482;-80
2023/01/07 09:37:36;;;;;;;;;80.75;70.75;;;;;18.27;36.47;99981.13;5090045;28;10667;-78
2023/01/07 09:40:14;;;;;;;;;83.25;74.75;;;;;18.28;36.75;99977.59;5072206;28;10330;-78
2023/01/07 09:42:51;;;;;;;;;85.75;77.50;;;;;18.28;36.42;99971.47;5073493;28;10173;-80
2023/01/07 09:45:24;;;;;;;;;83.25;75.00;;;;;18.23;36.45;99968.94;5088753;28;10212;-81
2023/01/07 09:47:56;;;;;;;;;80.00;65.00;;;;;18.20;36.56;99960.22;5072039;28;10372;-77
2023/01/07 09:50:44;;;;;;;;;85.25;74.00;;;;;18.27;36.20;99956.53;5071705;28;10178;-82
2023/01/07 09:53:18;;;;;;;;;79.50;67.25;;;;;18.16;36.42;99954.16;5088833;28;10251;-79
2023/01/07 09:55:51;;;;;;;;;82.00;70.00;;;;;18.14;36.32;99948.03;5072102;28;10174;-78
2023/01/07 09:58:45;;;;;;;;;84.50;76.00;;;;;18.06;36.70;99953.50;5071690;28;10258;-81
2023/01/07 10:01:28;;;;;;;;;87.00;81.00;;;;;18.13;36.58;99954.25;5071794;28;10718;-78
2023/01/07 10:04:10;;;;;;;;;86.25;80.75;;;;;18.10;36.71;99947.25;5075286;28;10736;-77
2023/01/07 10:06:48;;;;;;;;;82.25;73.25;;;;;18.09;37.01;99949.91;5085404;28;10382;-81
2023/01/07 10:09:31;;;;;;;;;85.75;75.50;;;;;18.10;37.09;99941.09;5085722;28;10377;-80
2023/01/07 10:12:12;;;;;;;;;82.50;72.00;;;;;18.08;37.12;99935.88;5085054;28;10465;-81
2023/01/07 10:14:59;;;;;;;;;83.50;70.50;;;;;18.14;37.24;99929.56;5091612;28;10567;-78
2023/01/07 10:17:40;;;;;;;;;84.75;75.75;;;;;18.10;37.37;99927.91;5094292;28;11540;-80
2023/01/07 10:20:16;;;;;;;;;86.50;81.25;;;;;18.07;37.54;99923.59;5109713;28;10807;-79
2023/01/07 10:22:52;;;;;;;;;87.75;81.50;;;;;18.12;37.33;99924.31;5092702;28;10826;-79
2023/01/07 10:25:27;;;;;;;;;86.75;81.25;;;;;18.17;37.48;99920.72;5061561;27;10888;-79
2023/01/07 10:28:04;;;;;;;;;86.75;79.50;;;;;18.21;37.39;99917.94;5112612;27;11687;-79
2023/01/07 10:30:39;;;;;;;;;86.25;76.50;;;;;18.21;37.55;99917.94;5112552;27;10823;-80
2023/01/07 10:33:18;;;;;;;;;90.25;84.00;;;;;18.21;37.56;99922.38;5112691;27;10624;-79
2023/01/07 10:35:51;;;;;;;;;84.75;79.00;;;;;18.14;37.57;99919.00;5094520;28;11092;-80
2023/01/07 10:38:20;;;;;;;;;94.50;84.25;;;;;18.05;37.85;99911.31;5073279;28;10858;-79
2023/01/07 10:40:55;;;;;;;;;94.50;90.25;;;;;18.13;37.75;99906.72;5091468;28;10930;-80
2023/01/07 10:43:41;;;;;;;;;95.75;88.00;;;;;18.20;37.34;99907.41;5106920;28;11632;-80
2023/01/07 10:46:33;;;;;;;;;93.25;88.25;;;;;18.12;37.23;99907.63;5091159;28;11247;-78
2023/01/07 10:49:29;;;;;;;;;90.75;83.00;;;;;18.20;36.78;99904.78;5089615;28;10915;-78
2023/01/07 10:52:20;;;;;;;;;87.50;83.00;;;;;18.07;37.16;99905.13;5106870;28;10693;-80
2023/01/07 10:55:00;;;;;;;;;88.50;85.50;;;;;18.15;36.71;99893.47;5090917;28;11168;-81
2023/01/07 10:57:31;;;;;;;;;99.50;91.25;;;;;18.11;36.85;99893.56;5090913;28;11164;-80
2023/01/07 11:00:04;;;;;;;;;97.50;92.50;;;;;18.20;36.46;99884.53;5091292;28;12423;-79
2023/01/07 11:02:33;;;;;;;;;239.50;212.75;;;;;18.27;36.65;99890.53;5091035;28;11532;-79
2023/01/07 11:05:03;;;;;;;;;113.75;107.50;;;;;18.33;36.28;99890.34;5090234;28;8856;-79
2023/01/07 11:07:42;;;;;;;;;112.50;102.25;;;;;18.34;36.82;99884.19;5055468;28;11618;-80
2023/01/07 11:10:15;;;;;;;;;105.00;91.00;;;;;18.41;36.74;99882.22;5073349;28;11564;-79
2023/01/07 11:12:48;;;;;;;;;104.00;98.75;;;;;18.37;36.58;99880.56;5072913;28;11516;-80
2023/01/07 11:15:24;;;;;;;;;108.75;102.25;;;;;18.45;36.38;99870.66;5072721;28;11616;-79
2023/01/07 11:17:56;;;;;;;;;104.50;102.25;;;;;18.44;36.13;99861.88;5089558;28;11510;-80
2023/01/07 11:20:43;;;;;;;;;111.50;103.25;;;;;18.58;36.31;99864.16;5091541;28;11706;-82
2023/01/07 11:23:31;;;;;;;;;122.00;113.50;;;;;18.54;35.93;99861.63;5074504;28;11581;-82
2023/01/07 11:26:16;;;;;;;;;105.25;97.75;;;;;18.54;36.06;99846.63;5089922;28;11576;-80
2023/01/07 11:28:52;;;;;;;;;72.75;58.00;;;;;18.55;36.25;99848.38;5111096;27;11671;-79
2023/01/07 11:31:42;;;;;;;;;113.25;109.75;;;;;18.51;36.19;99844.09;5111560;28;11573;-79
2023/01/07 11:34:19;;;;;;;;;110.50;106.25;;;;;18.50;36.06;99839.72;5110637;28;11596;-80
2023/01/07 11:36:47;;;;;;;;;115.50;108.50;;;;;18.43;36.06;99840.78;5110559;28;11572;-80
2023/01/07 11:39:21;;;;;;;;;107.50;101.75;;;;;18.35;36.57;99829.59;5110691;28;11614;-79
2023/01/07 11:41:55;;;;;;;;;119.25;111.00;;;;;18.22;36.68;99840.50;5110111;28;11601;-79
2023/01/07 11:44:24;;;;;;;;;121.25;118.25;;;;;18.25;36.63;99821.91;5094316;28;11617;-79